createdAt,value
2023-01-20T00:01:10.242Z,100763.16
2023-01-20T00:03:37.259Z,100764.53
2023-01-20T00:06:04.568Z,100754.34
2023-01-20T00:08:31.409Z,100760.47
2023-01-20T00:10:58.244Z,100759.84
2023-01-20T00:13:25.004Z,100769.50
2023-01-20T00:15:51.774Z,100768.72
2023-01-20T00:18:18.558Z,100777.56
2023-01-20T00:20:45.318Z,100771.41
2023-01-20T00:23:12.165Z,100772.84
2023-01-20T00:25:39.061Z,100785.66
2023-01-20T00:28:06.189Z,100785.00
2023-01-20T00:30:32.976Z,100788.22
2023-01-20T00:32:59.724Z,100783.38
2023-01-20T00:35:26.404Z,100784.47
2023-01-20T00:37:53.244Z,100780.38
2023-01-20T00:40:19.931Z,100778.97
2023-01-20T00:42:46.779Z,100784.31
2023-01-20T00:45:13.765Z,100798.81
2023-01-20T00:47:40.699Z,100793.97
2023-01-20T00:50:07.968Z,100800.34
2023-01-20T00:52:34.783Z,100795.94
2023-01-20T00:55:01.462Z,100794.88
2023-01-20T00:57:28.268Z,100798.66
2023-01-20T00:59:54.949Z,100794.13
2023-01-20T01:02:21.833Z,100803.25
2023-01-20T01:04:51.750Z,100801.63
2023-01-20T01:07:18.806Z,100798.69
2023-01-20T01:09:45.571Z,100805.91
2023-01-20T01:12:12.389Z,100810.47
2023-01-20T01:14:39.212Z,100814.50
2023-01-20T01:17:06.007Z,100814.50
2023-01-20T01:19:32.700Z,100809.44
2023-01-20T01:21:59.430Z,100816.34
2023-01-20T01:24:26.115Z,100816.38
2023-01-20T01:26:53.859Z,100824.13
2023-01-20T01:29:20.903Z,100824.13
2023-01-20T01:31:47.681Z,100816.34
2023-01-20T01:34:15.367Z,100830.22
2023-01-20T01:36:42.353Z,100833.50
2023-01-20T01:39:09.068Z,100843.34
2023-01-20T01:41:36.070Z,100848.78
2023-01-20T01:44:13.771Z,100846.38
2023-01-20T01:46:41.377Z,100835.91
2023-01-20T01:49:21.406Z,100854.16
2023-01-20T01:52:04.657Z,100847.09
2023-01-20T01:54:33.829Z,100843.94
2023-01-20T01:57:00.968Z,100848.25
2023-01-20T01:59:27.963Z,100864.56
2023-01-20T02:01:55.334Z,100866.94
2023-01-20T02:04:26.728Z,100866.72
2023-01-20T02:07:00.325Z,100866.44
2023-01-20T02:09:27.639Z,100867.69
2023-01-20T02:11:57.048Z,100875.31
2023-01-20T02:14:33.637Z,100866.47
2023-01-20T02:17:03.075Z,100865.63
2023-01-20T02:19:36.015Z,100863.50
2023-01-20T02:22:31.424Z,100878.97
2023-01-20T02:25:10.345Z,100864.28
2023-01-20T02:27:48.023Z,100872.63
2023-01-20T02:30:22.003Z,100873.69
2023-01-20T02:32:59.281Z,100869.94
2023-01-20T02:35:52.408Z,100873.19
2023-01-20T02:38:28.985Z,100869.13
2023-01-20T02:41:05.746Z,100876.88
2023-01-20T02:43:48.780Z,100878.72
2023-01-20T02:46:38.588Z,100878.38
2023-01-20T02:49:26.607Z,100868.53
2023-01-20T02:51:58.711Z,100872.25
2023-01-20T02:54:27.925Z,100866.97
2023-01-20T02:56:55.489Z,100867.53
2023-01-20T02:59:24.968Z,100856.28
2023-01-20T03:01:58.679Z,100872.38
2023-01-20T03:04:29.837Z,100879.84
2023-01-20T03:06:58.666Z,100883.88
2023-01-20T03:09:31.625Z,100883.50
2023-01-20T03:12:02.032Z,100874.38
2023-01-20T03:14:29.201Z,100880.91
2023-01-20T03:16:56.197Z,100884.91
2023-01-20T03:19:23.043Z,100882.00
2023-01-20T03:21:49.798Z,100891.63
2023-01-20T03:24:16.752Z,100879.38
2023-01-20T03:26:43.491Z,100887.47
2023-01-20T03:29:15.284Z,100887.00
2023-01-20T03:31:46.388Z,100888.44
2023-01-20T03:34:16.306Z,100882.38
2023-01-20T03:36:43.889Z,100886.97
2023-01-20T03:39:10.881Z,100884.50
2023-01-20T03:41:56.178Z,100885.22
2023-01-20T03:44:41.681Z,100893.50
2023-01-20T03:47:11.574Z,100898.59
2023-01-20T03:49:57.069Z,100903.19
2023-01-20T03:52:48.015Z,100905.28
2023-01-20T03:55:50.813Z,100904.59
2023-01-20T03:58:26.347Z,100905.47
2023-01-20T04:00:53.412Z,100892.63
2023-01-20T04:03:23.078Z,100902.34
2023-01-20T04:05:50.151Z,100899.16
2023-01-20T04:08:18.167Z,100899.13
2023-01-20T04:10:47.256Z,100902.81
2023-01-20T04:13:14.793Z,100896.16
2023-01-20T04:15:44.631Z,100898.59
2023-01-20T04:18:23.233Z,100900.75
2023-01-20T04:20:53.606Z,100896.66
2023-01-20T04:23:20.410Z,100899.91
2023-01-20T04:25:47.168Z,100897.81
2023-01-20T04:28:13.924Z,100895.63
2023-01-20T04:30:40.955Z,100893.44
2023-01-20T04:33:08.006Z,100893.25
2023-01-20T04:35:34.679Z,100892.94
2023-01-20T04:38:01.688Z,100898.09
2023-01-20T04:40:28.418Z,100895.13
2023-01-20T04:42:55.349Z,100896.00
2023-01-20T04:45:22.201Z,100900.59
2023-01-20T04:47:48.959Z,100903.16
2023-01-20T04:50:16.470Z,100905.16
2023-01-20T04:52:43.448Z,100891.78
2023-01-20T04:55:11.331Z,100896.63
2023-01-20T04:57:38.397Z,100901.47
2023-01-20T05:00:06.910Z,100902.25
2023-01-20T05:02:33.898Z,100897.78
2023-01-20T05:05:00.719Z,100897.13
2023-01-20T05:07:27.520Z,100898.34
2023-01-20T05:09:54.394Z,100904.69
2023-01-20T05:12:21.246Z,100905.19
2023-01-20T05:14:48.002Z,100900.03
2023-01-20T05:17:14.753Z,100901.69
2023-01-20T05:19:43.607Z,100900.28
2023-01-20T05:22:10.683Z,100909.81
2023-01-20T05:24:37.528Z,100902.84
2023-01-20T05:27:04.379Z,100919.69
2023-01-20T05:29:31.153Z,100918.09
2023-01-20T05:31:57.979Z,100920.53
2023-01-20T05:34:24.804Z,100915.44
2023-01-20T05:36:53.518Z,100920.00
2023-01-20T05:39:21.033Z,100925.09
2023-01-20T05:41:47.975Z,100917.63
2023-01-20T05:44:16.028Z,100923.69
2023-01-20T05:46:43.031Z,100925.91
2023-01-20T05:49:12.524Z,100911.94
2023-01-20T05:51:39.825Z,100919.50
2023-01-20T05:54:06.800Z,100926.91
2023-01-20T05:56:33.599Z,100937.03
2023-01-20T05:59:00.427Z,100944.06
2023-01-20T06:01:27.402Z,100948.72
2023-01-20T06:03:54.319Z,100944.16
2023-01-20T06:06:21.147Z,100948.88
2023-01-20T06:08:49.635Z,100949.38
2023-01-20T06:11:17.990Z,100952.16
2023-01-20T06:13:48.112Z,100949.81
2023-01-20T06:16:15.284Z,100950.56
2023-01-20T06:18:42.122Z,100949.16
2023-01-20T06:21:09.266Z,100940.50
2023-01-20T06:23:36.264Z,100935.38
2023-01-20T06:26:05.723Z,100935.16
2023-01-20T06:28:35.994Z,100937.00
2023-01-20T06:31:14.286Z,100934.78
2023-01-20T06:33:41.779Z,100931.09
2023-01-20T06:36:09.070Z,100924.63
2023-01-20T06:38:36.205Z,100920.13
2023-01-20T06:41:05.811Z,100922.50
2023-01-20T06:43:34.152Z,100925.19
2023-01-20T06:46:06.734Z,100919.34
2023-01-20T06:48:33.661Z,100933.94
2023-01-20T06:51:05.866Z,100940.25
2023-01-20T06:53:32.855Z,100948.00
2023-01-20T06:56:00.862Z,100943.19
2023-01-20T06:58:29.731Z,100948.75
2023-01-20T07:00:57.338Z,100950.75
2023-01-20T07:03:24.594Z,100945.63
2023-01-20T07:06:14.838Z,100958.94
2023-01-20T07:08:43.467Z,100956.09
2023-01-20T07:11:10.219Z,100958.06
2023-01-20T07:13:37.013Z,100953.44
2023-01-20T07:16:03.984Z,100956.91
2023-01-20T07:18:30.804Z,100965.66
2023-01-20T07:20:57.797Z,100960.00
2023-01-20T07:23:24.712Z,100969.25
2023-01-20T07:26:02.073Z,100972.69
2023-01-20T07:28:30.665Z,100972.47
2023-01-20T07:31:03.733Z,100983.16
2023-01-20T07:33:31.232Z,100976.53
2023-01-20T07:35:58.029Z,100978.59
2023-01-20T07:38:25.812Z,100969.28
2023-01-20T07:40:52.640Z,100972.22
2023-01-20T07:43:19.542Z,100975.75
2023-01-20T07:45:46.467Z,100974.78
2023-01-20T07:48:13.380Z,100978.81
2023-01-20T07:50:40.208Z,100983.44
2023-01-20T07:53:07.187Z,100979.09
2023-01-20T07:55:34.315Z,100987.34
2023-01-20T07:58:02.232Z,100975.06
2023-01-20T08:00:29.100Z,100971.13
2023-01-20T08:02:56.029Z,100978.13
2023-01-20T08:05:22.906Z,100981.16
2023-01-20T08:07:53.024Z,100989.03
2023-01-20T08:10:19.886Z,100992.47
2023-01-20T08:12:46.628Z,101003.25
2023-01-20T08:15:14.152Z,100990.75
2023-01-20T08:17:41.161Z,100988.53
2023-01-20T08:20:08.944Z,100998.56
2023-01-20T08:22:36.060Z,100997.47
2023-01-20T08:25:02.843Z,100991.88
2023-01-20T08:27:29.836Z,100994.28
2023-01-20T08:29:56.645Z,100994.00
2023-01-20T08:32:24.029Z,100991.03
2023-01-20T08:34:51.002Z,100998.41
2023-01-20T08:37:17.917Z,101006.16
2023-01-20T08:39:45.110Z,101006.19
2023-01-20T08:42:12.630Z,100997.16
2023-01-20T08:44:39.630Z,101002.16
2023-01-20T08:47:10.231Z,101006.41
2023-01-20T08:49:37.043Z,101007.00
2023-01-20T08:52:04.139Z,101000.66
2023-01-20T08:54:34.579Z,101004.53
2023-01-20T08:57:01.773Z,101011.25
2023-01-20T08:59:29.056Z,101003.59
2023-01-20T09:01:56.022Z,101011.28
2023-01-20T09:04:23.144Z,101007.88
2023-01-20T09:06:54.240Z,101004.53
2023-01-20T09:09:22.955Z,101005.09
2023-01-20T09:11:52.487Z,101009.44
2023-01-20T09:14:25.023Z,101004.81
2023-01-20T09:16:52.450Z,101011.38
2023-01-20T09:19:19.426Z,101020.09
2023-01-20T09:21:46.142Z,101022.88
2023-01-20T09:24:13.132Z,101018.28
2023-01-20T09:26:48.075Z,101015.84
2023-01-20T09:29:16.539Z,101021.53
2023-01-20T09:31:45.210Z,101008.81
2023-01-20T09:34:19.310Z,101016.81
2023-01-20T09:37:19.148Z,101019.16
2023-01-20T09:40:33.409Z,101029.94
2023-01-20T09:43:22.079Z,101034.78
2023-01-20T09:45:58.071Z,101033.47
2023-01-20T09:48:43.744Z,101031.22
2023-01-20T09:51:38.355Z,101026.72
2023-01-20T09:54:18.689Z,101031.03
2023-01-20T09:56:48.561Z,101032.59
2023-01-20T09:59:23.469Z,101030.75
2023-01-20T10:01:54.723Z,101030.72
2023-01-20T10:04:25.517Z,101016.00
2023-01-20T10:07:06.932Z,101026.50
2023-01-20T10:09:45.091Z,101027.56
2023-01-20T10:12:18.479Z,101025.38
2023-01-20T10:14:50.903Z,101029.38
2023-01-20T10:17:29.444Z,101032.66
2023-01-20T10:20:03.933Z,101034.78
2023-01-20T10:22:37.891Z,101039.88
2023-01-20T10:25:12.812Z,101038.56
2023-01-20T10:27:45.432Z,101027.53
2023-01-20T10:30:14.698Z,101029.94
2023-01-20T10:32:47.791Z,101018.44
2023-01-20T10:35:21.381Z,101031.34
2023-01-20T10:37:48.250Z,101033.50
2023-01-20T10:40:19.980Z,101036.47
2023-01-20T10:42:49.424Z,101031.84
2023-01-20T10:45:21.178Z,101032.41
2023-01-20T10:47:57.544Z,101027.88
2023-01-20T10:50:50.789Z,101038.28
2023-01-20T10:53:35.707Z,101028.38
2023-01-20T10:56:23.087Z,101023.00
2023-01-20T10:58:49.991Z,101035.34
2023-01-20T11:01:19.000Z,101032.72
2023-01-20T11:03:47.731Z,101022.19
2023-01-20T11:06:20.624Z,101010.97
2023-01-20T11:08:48.371Z,101017.94
2023-01-20T11:11:21.513Z,101022.19
2023-01-20T11:13:51.585Z,101023.50
2023-01-20T11:16:31.511Z,101029.91
2023-01-20T11:19:03.729Z,101033.72
2023-01-20T11:21:33.616Z,101044.47
2023-01-20T11:24:00.845Z,101047.97
2023-01-20T11:26:30.155Z,101044.72
2023-01-20T11:29:09.064Z,101043.66
2023-01-20T11:31:41.711Z,101048.59
2023-01-20T11:34:35.654Z,101037.22
2023-01-20T11:37:05.543Z,101047.44
2023-01-20T11:39:56.013Z,101033.16
2023-01-20T11:42:28.847Z,101032.94
2023-01-20T11:45:15.357Z,101038.50
2023-01-20T11:47:45.287Z,101029.47
2023-01-20T11:50:43.597Z,101036.59
2023-01-20T11:53:21.133Z,101044.00
2023-01-20T11:56:03.477Z,101040.72
2023-01-20T11:58:47.096Z,101035.91
2023-01-20T12:01:22.798Z,101045.66
2023-01-20T12:04:23.668Z,101031.78
2023-01-20T12:06:54.501Z,101030.56
2023-01-20T12:09:26.224Z,101024.53
2023-01-20T12:12:05.959Z,101027.69
2023-01-20T12:14:38.259Z,101021.47
2023-01-20T12:17:33.825Z,101031.56
2023-01-20T12:20:09.843Z,101022.91
2023-01-20T12:23:06.346Z,101034.34
2023-01-20T12:25:44.433Z,101027.97
2023-01-20T12:28:23.564Z,101025.88
2023-01-20T12:31:05.275Z,101029.09
2023-01-20T12:33:44.506Z,101026.72
2023-01-20T12:36:33.189Z,101030.06
2023-01-20T12:39:25.046Z,101029.06
2023-01-20T12:42:30.980Z,101060.81
2023-01-20T12:45:21.720Z,101045.59
2023-01-20T12:48:03.869Z,101052.63
2023-01-20T12:50:51.972Z,101063.34
2023-01-20T12:53:31.139Z,101061.16
2023-01-20T12:56:03.838Z,101052.44
2023-01-20T12:58:33.681Z,101054.59
2023-01-20T13:01:28.939Z,101055.13
2023-01-20T13:04:08.807Z,101066.34
2023-01-20T13:06:42.822Z,101050.47
2023-01-20T13:09:35.981Z,101048.84
2023-01-20T13:12:31.757Z,101052.53
2023-01-20T13:15:21.755Z,101044.94
2023-01-20T13:18:03.818Z,101053.88
2023-01-20T13:20:30.952Z,101060.47
2023-01-20T13:23:01.084Z,101053.81
2023-01-20T13:25:28.613Z,101063.72
2023-01-20T13:27:55.630Z,101051.91
2023-01-20T13:30:39.989Z,101045.81
2023-01-20T13:33:16.567Z,101039.25
2023-01-20T13:35:48.976Z,101046.34
2023-01-20T13:38:21.234Z,101041.69
2023-01-20T13:40:50.595Z,101048.22
2023-01-20T13:43:26.748Z,101048.31
2023-01-20T13:46:02.818Z,101046.06
2023-01-20T13:48:31.168Z,101042.13
2023-01-20T13:51:16.880Z,101035.41
2023-01-20T13:53:43.708Z,101033.09
2023-01-20T13:56:27.700Z,101033.75
2023-01-20T13:58:55.584Z,101027.63
2023-01-20T14:01:22.412Z,101033.97
2023-01-20T14:04:16.544Z,101043.56
2023-01-20T14:06:51.121Z,101034.69
2023-01-20T14:09:20.294Z,101029.94
2023-01-20T14:12:05.649Z,101028.81
2023-01-20T14:14:54.476Z,101026.06
2023-01-20T14:17:24.793Z,101020.16
2023-01-20T14:19:55.628Z,101022.91
2023-01-20T14:22:31.660Z,101034.53
2023-01-20T14:25:00.657Z,101025.47
2023-01-20T14:27:32.261Z,101040.22
2023-01-20T14:30:22.792Z,101039.75
2023-01-20T14:32:50.423Z,101040.38
2023-01-20T14:35:28.213Z,101047.09
2023-01-20T14:37:55.455Z,101055.84
2023-01-20T14:40:42.956Z,101059.19
2023-01-20T14:43:21.808Z,101057.66
2023-01-20T14:45:51.542Z,101064.53
2023-01-20T14:48:33.010Z,101067.25
2023-01-20T14:51:02.795Z,101054.22
2023-01-20T14:53:29.645Z,101058.31
2023-01-20T14:56:00.459Z,101059.56
2023-01-20T14:58:30.660Z,101060.53
2023-01-20T15:01:03.697Z,101057.56
2023-01-20T15:03:31.136Z,101060.06
2023-01-20T15:06:14.896Z,101058.81
2023-01-20T15:08:42.957Z,101056.94
2023-01-20T15:11:20.596Z,101059.09
2023-01-20T15:13:53.746Z,101054.97
2023-01-20T15:16:26.397Z,101059.34
2023-01-20T15:19:17.550Z,101064.00
2023-01-20T15:21:58.422Z,101065.81
2023-01-20T15:24:31.679Z,101068.78
2023-01-20T15:27:00.704Z,101072.44
2023-01-20T15:29:33.324Z,101070.19
2023-01-20T15:32:02.321Z,101080.41
2023-01-20T15:34:29.834Z,101074.53
2023-01-20T15:36:56.746Z,101071.31
2023-01-20T15:39:30.294Z,101066.44
2023-01-20T15:42:30.281Z,101069.84
2023-01-20T15:44:57.671Z,101062.09
2023-01-20T15:47:31.218Z,101070.19
2023-01-20T15:49:58.454Z,101072.16
2023-01-20T15:52:25.279Z,101068.75
2023-01-20T15:54:54.467Z,101077.38
2023-01-20T15:57:26.072Z,101082.47
2023-01-20T15:59:52.840Z,101091.34
2023-01-20T16:02:21.698Z,101074.84
2023-01-20T16:04:48.603Z,101084.66
2023-01-20T16:07:17.763Z,101096.34
2023-01-20T16:09:46.219Z,101095.91
2023-01-20T16:12:14.681Z,101148.28
2023-01-20T16:14:42.377Z,101181.31
2023-01-20T16:17:21.298Z,101186.47
2023-01-20T16:19:49.323Z,101191.06
2023-01-20T16:22:16.627Z,101193.19
2023-01-20T16:24:44.120Z,101200.44
2023-01-20T16:27:17.654Z,101214.94
2023-01-20T16:29:44.985Z,101214.94
2023-01-20T16:32:12.617Z,101222.16
2023-01-20T16:34:39.992Z,101221.66
2023-01-20T16:37:06.794Z,101224.59
2023-01-20T16:39:34.200Z,101220.56
2023-01-20T16:42:00.900Z,101223.25
2023-01-20T16:44:27.600Z,101231.03
2023-01-20T16:46:54.355Z,101236.69
2023-01-20T16:49:22.751Z,101240.19
2023-01-20T16:51:49.772Z,101243.94
2023-01-20T16:54:16.638Z,101234.81
2023-01-20T16:56:43.488Z,101231.81
2023-01-20T16:59:10.255Z,101215.97
2023-01-20T17:01:37.084Z,101207.97
2023-01-20T17:04:05.016Z,101215.22
2023-01-20T17:06:33.999Z,101222.97
2023-01-20T17:09:03.974Z,101220.22
2023-01-20T17:11:35.998Z,101223.44
2023-01-20T17:14:05.490Z,101221.38
2023-01-20T17:16:32.747Z,101225.94
2023-01-20T17:19:00.758Z,101224.84
2023-01-20T17:21:29.670Z,101238.28
2023-01-20T17:24:01.648Z,101238.84
2023-01-20T17:26:31.576Z,101254.16
2023-01-20T17:29:06.270Z,101262.75
2023-01-20T17:31:38.992Z,101263.81
2023-01-20T17:34:09.735Z,101264.66
2023-01-20T17:36:39.946Z,101266.31
2023-01-20T17:39:20.379Z,101279.16
2023-01-20T17:41:51.799Z,101267.31
2023-01-20T17:44:19.923Z,101274.03
2023-01-20T17:46:49.030Z,101281.53
2023-01-20T17:49:16.426Z,101306.53
2023-01-20T17:51:44.395Z,101312.16
2023-01-20T17:54:11.449Z,101304.06
2023-01-20T17:56:38.590Z,101313.53
2023-01-20T17:59:05.882Z,101319.72
2023-01-20T18:01:33.341Z,101309.50
2023-01-20T18:04:00.976Z,101319.69
2023-01-20T18:06:28.744Z,101319.41
2023-01-20T18:08:58.092Z,101335.84
2023-01-20T18:11:27.188Z,101344.16
2023-01-20T18:13:55.602Z,101346.31
2023-01-20T18:16:28.648Z,101346.59
2023-01-20T18:18:58.897Z,101352.22
2023-01-20T18:21:29.867Z,101368.06
2023-01-20T18:23:58.847Z,101380.75
2023-01-20T18:26:29.542Z,101377.47
2023-01-20T18:28:57.623Z,101380.19
2023-01-20T18:31:26.119Z,101384.19
2023-01-20T18:33:58.706Z,101402.41
2023-01-20T18:36:28.728Z,101399.25
2023-01-20T18:39:02.821Z,101405.22
2023-01-20T18:41:36.473Z,101406.66
2023-01-20T18:44:07.362Z,101411.06
2023-01-20T18:46:36.401Z,101425.97
2023-01-20T18:49:03.501Z,101420.28
2023-01-20T18:51:54.178Z,101425.44
2023-01-20T18:54:26.099Z,101417.16
2023-01-20T18:56:53.072Z,101430.16
2023-01-20T18:59:27.408Z,101436.13
2023-01-20T19:01:56.354Z,101450.06
2023-01-20T19:04:23.313Z,101450.31
2023-01-20T19:06:50.819Z,101458.91
2023-01-20T19:09:19.729Z,101460.16
2023-01-20T19:11:46.771Z,101468.06
2023-01-20T19:14:15.286Z,101485.63
2023-01-20T19:16:45.426Z,101495.41
2023-01-20T19:19:13.043Z,101479.91
2023-01-20T19:21:39.960Z,101498.19
2023-01-20T19:24:08.152Z,101511.66
2023-01-20T19:26:37.534Z,101516.69
2023-01-20T19:29:10.921Z,101510.22
2023-01-20T19:31:39.961Z,101528.00
2023-01-20T19:34:07.701Z,101519.84
2023-01-20T19:36:41.383Z,101530.88
2023-01-20T19:39:10.278Z,101532.88
2023-01-20T19:41:39.047Z,101526.88
2023-01-20T19:44:06.906Z,101536.53
2023-01-20T19:46:35.883Z,101529.94
2023-01-20T19:49:05.426Z,101541.00
2023-01-20T19:51:32.715Z,101552.34
2023-01-20T19:54:01.781Z,101556.81
2023-01-20T19:56:31.627Z,101555.72
2023-01-20T19:59:02.959Z,101564.44
2023-01-20T20:01:32.176Z,101580.94
2023-01-20T20:03:59.727Z,101576.06
2023-01-20T20:06:31.792Z,101581.47
2023-01-20T20:09:00.972Z,101588.50
2023-01-20T20:11:31.927Z,101597.22
2023-01-20T20:14:05.989Z,101580.22
2023-01-20T20:16:35.196Z,101591.63
2023-01-20T20:19:02.917Z,101611.00
2023-01-20T20:21:29.861Z,101607.78
2023-01-20T20:23:58.769Z,101623.13
2023-01-20T20:26:31.038Z,101621.53
2023-01-20T20:29:02.529Z,101637.56
2023-01-20T20:31:30.007Z,101648.66
2023-01-20T20:34:01.301Z,101649.75
2023-01-20T20:36:29.798Z,101666.78
2023-01-20T20:38:58.793Z,101675.13
2023-01-20T20:41:29.224Z,101670.53
2023-01-20T20:43:57.490Z,101673.47
2023-01-20T20:46:28.392Z,101678.38
2023-01-20T20:48:56.633Z,101694.28
2023-01-20T20:51:26.362Z,101700.25
2023-01-20T20:53:58.182Z,101704.25
2023-01-20T20:56:31.885Z,101710.03
2023-01-20T20:59:02.486Z,101698.88
2023-01-20T21:01:32.240Z,101704.31
2023-01-20T21:04:00.631Z,101719.50
2023-01-20T21:06:31.843Z,101731.34
2023-01-20T21:09:02.066Z,101715.75
2023-01-20T21:11:29.360Z,101725.03
2023-01-20T21:13:56.302Z,101732.91
2023-01-20T21:16:24.187Z,101747.44
2023-01-20T21:18:55.087Z,101751.09
2023-01-20T21:21:22.651Z,101750.63
2023-01-20T21:23:52.761Z,101766.16
2023-01-20T21:26:20.326Z,101767.59
2023-01-20T21:28:49.386Z,101765.78
2023-01-20T21:31:21.626Z,101778.25
2023-01-20T21:33:53.638Z,101779.63
2023-01-20T21:36:22.556Z,101786.81
2023-01-20T21:38:49.873Z,101796.56
2023-01-20T21:41:17.613Z,101803.66
2023-01-20T21:44:04.463Z,101814.91
2023-01-20T21:46:35.220Z,101814.53
2023-01-20T21:49:22.361Z,101823.88
2023-01-20T21:52:07.717Z,101815.13
2023-01-20T21:54:34.840Z,101836.97
2023-01-20T21:57:02.260Z,101826.59
2023-01-20T21:59:29.024Z,101827.31
2023-01-20T22:01:55.848Z,101823.66
2023-01-20T22:04:22.887Z,101846.88
2023-01-20T22:06:49.865Z,101843.06
2023-01-20T22:09:16.703Z,101852.06
2023-01-20T22:11:43.880Z,101849.63
2023-01-20T22:14:11.026Z,101839.91
2023-01-20T22:16:38.196Z,101854.41
2023-01-20T22:19:05.074Z,101853.28
2023-01-20T22:21:32.560Z,101862.84
2023-01-20T22:23:59.399Z,101868.97
2023-01-20T22:26:27.521Z,101879.94
2023-01-20T22:28:54.426Z,101881.75
2023-01-20T22:31:23.526Z,101889.56
2023-01-20T22:33:54.517Z,101889.09
2023-01-20T22:36:23.220Z,101904.31
2023-01-20T22:38:52.947Z,101907.38
2023-01-20T22:41:20.581Z,101905.50
2023-01-20T22:43:48.249Z,101912.69
2023-01-20T22:46:17.771Z,101911.00
2023-01-20T22:48:45.534Z,101911.56
2023-01-20T22:51:18.043Z,101917.94
2023-01-20T22:53:45.241Z,101934.47
2023-01-20T22:56:23.017Z,101936.34
2023-01-20T22:58:50.268Z,101937.41
2023-01-20T23:01:31.998Z,101942.69
2023-01-20T23:04:05.333Z,101947.69
2023-01-20T23:06:33.987Z,101952.97
2023-01-20T23:09:03.091Z,101958.03
2023-01-20T23:11:29.987Z,101968.22
2023-01-20T23:13:56.776Z,101966.81
2023-01-20T23:16:23.658Z,101969.25
2023-01-20T23:18:51.168Z,101970.59
2023-01-20T23:21:18.640Z,101978.81
2023-01-20T23:23:45.882Z,101988.75
2023-01-20T23:26:17.909Z,101990.53
2023-01-20T23:28:45.783Z,101987.03
2023-01-20T23:31:15.355Z,101999.22
2023-01-20T23:33:43.688Z,102004.97
2023-01-20T23:36:19.868Z,102015.34
2023-01-20T23:38:46.973Z,102009.47
2023-01-20T23:41:14.649Z,102015.78
2023-01-20T23:43:41.737Z,102028.06
2023-01-20T23:46:09.772Z,102031.72
2023-01-20T23:48:37.114Z,102027.38
2023-01-20T23:51:04.919Z,102038.63
2023-01-20T23:53:33.764Z,102043.59
2023-01-20T23:56:07.136Z,102054.81
2023-01-20T23:58:34.259Z,102061.31
